Time;durP1;ratioP1;P1;durP2;ratioP2;P2;SDS_P1;SDS_P2;PMS_P1;PMS_P2;Temp;Humidity;BMP_temperature;BMP_pressure;BME280_temperature;BME280_humidity;BME280_pressure;Samples;Min_cycle;Max_cycle;Signal;HPM_P1;HPM_P2
2023/10/06 00:00:59;;;;;;;12.20;8.52;;;;;;;17.29;58.17;95562.06;5043054;28;20227;-72
2023/10/06 00:03:08;;;;;;;12.10;9.32;;;;;;;17.17;58.43;95567.00;5039067;28;20312;-72
2023/10/06 00:05:34;;;;;;;12.82;9.38;;;;;;;17.16;58.60;95561.84;5049491;28;20290;-71
2023/10/06 00:08:00;;;;;;;13.13;8.65;;;;;;;17.24;58.55;95556.50;5043432;28;20238;-71
2023/10/06 00:10:28;;;;;;;10.55;8.35;;;;;;;17.40;58.10;95555.50;5043604;28;20213;-71
2023/10/06 00:12:58;;;;;;;12.38;8.80;;;;;;;17.42;57.79;95543.69;5048030;28;20213;-68
2023/10/06 00:15:38;;;;;;;12.93;9.00;;;;;;;17.51;57.32;95544.44;5041920;28;20222;-67
2023/10/06 00:18:08;;;;;;;16.35;9.23;;;;;;;17.57;57.30;95549.03;5051432;28;20282;-68
2023/10/06 00:20:49;;;;;;;9.80;8.77;;;;;;;17.52;57.27;95535.44;5049787;28;20624;-68
2023/10/06 00:23:22;;;;;;;14.48;9.27;;;;;;;17.51;57.24;95543.59;5050325;28;20221;-68
2023/10/06 00:25:52;;;;;;;12.10;8.45;;;;;;;17.49;56.99;95543.78;5039454;28;20228;-68
2023/10/06 00:28:25;;;;;;;16.20;9.77;;;;;;;17.50;56.91;95545.44;5043022;28;20240;-68
2023/10/06 00:31:05;;;;;;;13.40;8.85;;;;;;;17.58;56.75;95537.38;5039661;28;20218;-68
2023/10/06 00:33:37;;;;;;;11.73;9.10;;;;;;;17.55;56.86;95529.75;5043339;28;20217;-68
2023/10/06 00:36:14;;;;;;;11.50;8.75;;;;;;;17.50;56.99;95536.63;5043962;28;20228;-71
2023/10/06 00:38:50;;;;;;;20.42;8.88;;;;;;;17.44;56.98;95529.41;5032536;28;20213;-71
2023/10/06 00:41:17;;;;;;;11.85;9.70;;;;;;;17.44;57.33;95543.50;5040838;28;20218;-71
2023/10/06 00:43:46;;;;;;;12.93;9.10;;;;;;;17.44;57.12;95537.38;5044207;28;20229;-72
2023/10/06 00:46:18;;;;;;;16.88;9.23;;;;;;;17.47;57.08;95535.16;5041568;28;20301;-71
2023/10/06 00:48:45;;;;;;;12.93;9.15;;;;;;;17.40;57.05;95536.88;5045545;28;20256;-71
2023/10/06 00:51:19;;;;;;;10.32;8.77;;;;;;;17.40;57.11;95534.22;5052609;28;20220;-71
2023/10/06 00:53:51;;;;;;;14.50;9.40;;;;;;;17.14;57.83;95537.31;5039611;28;20182;-71
2023/10/06 00:56:18;;;;;;;11.35;9.60;;;;;;;17.01;57.96;95535.25;5043945;28;20252;-71
2023/10/06 00:58:44;;;;;;;10.43;9.40;;;;;;;16.84;58.96;95539.88;5041358;28;20312;-69
2023/10/06 01:01:13;;;;;;;12.50;9.82;;;;;;;16.88;58.87;95541.16;5042203;28;20229;-69
2023/10/06 01:03:42;;;;;;;11.88;9.63;;;;;;;17.01;58.43;95548.53;5042054;28;20238;-70
2023/10/06 01:06:13;;;;;;;11.52;9.45;;;;;;;17.11;58.37;95551.78;5042932;28;20224;-70
2023/10/06 01:08:40;;;;;;;13.43;9.77;;;;;;;16.79;59.45;95549.41;5046068;28;20180;-70
2023/10/06 01:11:11;;;;;;;10.48;9.07;;;;;;;16.75;59.56;95544.38;5041198;28;20228;-70
2023/10/06 01:13:56;;;;;;;12.18;10.30;;;;;;;16.84;59.39;95539.03;5044203;28;20338;-71
2023/10/06 01:16:34;;;;;;;12.70;9.68;;;;;;;16.87;59.38;95536.06;5043108;28;20210;-72
2023/10/06 01:21:48;;;;;;;11.05;8.82;;;;;;;16.82;59.61;95528.59;5038720;28;20624;-72
2023/10/06 01:24:15;;;;;;;11.68;9.30;;;;;;;16.98;59.20;95532.97;5040916;28;20225;-72
2023/10/06 01:26:41;;;;;;;15.45;9.82;;;;;;;17.08;58.79;95533.53;5049768;28;20197;-72
2023/10/06 01:29:11;;;;;;;14.25;10.75;;;;;;;17.06;58.77;95530.25;5039485;28;20252;-72
2023/10/06 01:31:41;;;;;;;14.73;12.25;;;;;;;17.00;59.15;95528.31;5044618;28;20606;-72
2023/10/06 01:34:10;;;;;;;17.55;9.50;;;;;;;16.96;59.17;95525.16;5038745;28;20242;-72
2023/10/06 01:36:36;;;;;;;14.93;10.23;;;;;;;17.05;58.76;95533.06;5048541;28;20218;-73
2023/10/06 01:39:04;;;;;;;10.45;9.27;;;;;;;17.17;58.67;95550.25;5054310;28;20186;-71
2023/10/06 01:41:37;;;;;;;11.05;9.60;;;;;;;17.08;58.45;95548.63;5027848;28;20558;-73
2023/10/06 01:44:10;;;;;;;13.52;9.20;;;;;;;16.64;60.00;95546.63;5046808;28;20213;-72
2023/10/06 01:46:38;;;;;;;13.63;9.50;;;;;;;16.47;60.86;95548.56;5047320;28;20225;-73
2023/10/06 01:49:04;;;;;;;13.70;9.23;;;;;;;16.67;60.31;95547.09;5039983;28;20301;-72
2023/10/06 01:51:38;;;;;;;13.82;9.32;;;;;;;16.37;61.04;95548.78;5029499;28;20214;-71
2023/10/06 01:54:12;;;;;;;12.98;9.13;;;;;;;16.37;61.16;95551.44;5049053;28;20299;-71
2023/10/06 01:56:40;;;;;;;11.40;9.55;;;;;;;16.67;60.62;95551.59;5042908;28;20189;-70
2023/10/06 01:59:09;;;;;;;10.32;9.32;;;;;;;16.78;60.33;95555.69;5043832;28;20224;-73
2023/10/06 02:01:34;;;;;;;11.98;9.10;;;;;;;16.76;60.02;95561.97;5058802;28;20456;-73
2023/10/06 02:04:00;;;;;;;12.57;8.85;;;;;;;16.65;60.23;95570.38;5037559;28;20237;-73
2023/10/06 02:06:26;;;;;;;12.80;9.30;;;;;;;16.53;60.42;95566.44;5032661;28;20217;-70
2023/10/06 02:08:55;;;;;;;13.35;9.35;;;;;;;16.37;61.04;95566.53;5034981;28;20209;-72
2023/10/06 02:11:28;;;;;;;12.05;9.18;;;;;;;16.23;61.75;95558.31;5043168;28;20170;-71
2023/10/06 02:13:54;;;;;;;9.98;8.88;;;;;;;16.31;61.33;95568.88;5039882;28;20229;-72
2023/10/06 02:16:26;;;;;;;13.98;9.73;;;;;;;16.40;61.31;95568.84;5038090;28;20263;-71
2023/10/06 02:18:53;;;;;;;11.05;9.00;;;;;;;16.28;61.52;95566.56;5040119;28;20221;-71
2023/10/06 02:21:24;;;;;;;13.25;9.60;;;;;;;16.35;61.05;95568.53;5039323;28;20225;-70
2023/10/06 02:23:51;;;;;;;10.88;8.45;;;;;;;16.39;60.83;95575.16;5043689;28;20182;-71
2023/10/06 02:26:17;;;;;;;11.32;8.82;;;;;;;16.32;60.66;95569.69;5045566;28;20594;-71
2023/10/06 02:28:48;;;;;;;12.38;9.63;;;;;;;16.27;61.20;95582.66;5039372;28;20218;-71
2023/10/06 02:31:21;;;;;;;18.02;9.68;;;;;;;16.27;61.06;95578.19;5045128;28;20243;-72
2023/10/06 02:33:51;;;;;;;12.70;8.68;;;;;;;16.28;61.22;95582.50;5048236;28;20210;-72
2023/10/06 02:36:22;;;;;;;13.93;9.18;;;;;;;16.45;60.81;95585.06;5042525;28;20695;-72
2023/10/06 02:38:48;;;;;;;12.60;9.43;;;;;;;16.58;60.35;95573.88;5024590;28;20949;-73
2023/10/06 02:41:18;;;;;;;13.80;9.75;;;;;;;16.59;60.18;95581.66;5038561;28;20186;-72
2023/10/06 02:43:49;;;;;;;11.60;8.70;;;;;;;16.57;60.53;95588.97;5033897;28;20226;-73
2023/10/06 02:46:16;;;;;;;9.68;8.38;;;;;;;16.64;60.20;95589.94;5030584;28;20297;-72
2023/10/06 02:48:50;;;;;;;10.02;8.70;;;;;;;16.70;60.02;95591.88;5029362;28;20227;-72
2023/10/06 02:51:32;;;;;;;11.05;8.85;;;;;;;16.68;60.09;95585.09;5025743;28;20218;-73
2023/10/06 02:56:38;;;;;;;11.55;8.80;;;;;;;16.88;59.26;95582.84;5018368;28;20179;-73
2023/10/06 02:59:20;;;;;;;13.73;9.80;;;;;;;16.78;59.78;95595.53;5031103;28;21443;-73
2023/10/06 03:01:52;;;;;;;11.35;8.70;;;;;;;16.77;59.45;95578.78;5021766;28;20302;-73
2023/10/06 03:04:27;;;;;;;11.88;9.02;;;;;;;16.72;59.47;95587.22;5025807;28;20250;-73
2023/10/06 03:06:58;;;;;;;12.38;8.82;;;;;;;16.69;59.27;95581.44;5024119;28;20635;-73
2023/10/06 03:09:27;;;;;;;10.23;7.93;;;;;;;16.87;58.92;95576.72;5024535;28;20226;-72
2023/10/06 03:11:57;;;;;;;11.93;8.63;;;;;;;16.97;58.66;95571.13;5024183;28;20220;-72
2023/10/06 03:14:37;;;;;;;11.57;7.78;;;;;;;16.71;59.12;95584.75;5023390;28;20178;-71
2023/10/06 03:17:13;;;;;;;8.80;7.90;;;;;;;16.57;59.21;95575.69;5025943;28;20218;-71
2023/10/06 03:19:43;;;;;;;10.77;7.93;;;;;;;16.53;59.36;95585.03;5035663;28;20246;-72
2023/10/06 03:22:12;;;;;;;11.23;8.05;;;;;;;16.70;58.78;95583.91;5024572;28;20590;-73
2023/10/06 03:25:00;;;;;;;8.80;7.53;;;;;;;16.80;58.32;95581.06;5026829;28;20234;-72
2023/10/06 03:27:26;;;;;;;8.63;6.90;;;;;;;16.81;57.97;95579.22;5023653;28;20218;-71
2023/10/06 03:30:07;;;;;;;11.70;7.45;;;;;;;16.74;58.28;95585.22;5027359;28;20175;-74
2023/10/06 03:32:38;;;;;;;12.63;8.38;;;;;;;16.71;58.40;95593.53;5024902;28;20257;-72
2023/10/06 03:38:07;;;;;;;10.35;7.55;;;;;;;16.72;58.31;95575.78;5019851;28;20306;-75
2023/10/06 03:40:45;;;;;;;9.88;7.00;;;;;;;16.84;58.36;95586.84;5024471;28;20215;-73
2023/10/06 03:43:14;;;;;;;9.38;7.15;;;;;;;16.79;58.50;95568.81;5021628;28;21032;-74
2023/10/06 03:45:47;;;;;;;10.90;7.43;;;;;;;16.81;58.30;95582.72;5027435;28;20230;-76
2023/10/06 03:48:12;;;;;;;11.75;7.55;;;;;;;16.61;58.97;95590.28;5017592;28;20269;-78
2023/10/06 03:50:43;;;;;;;8.85;7.63;;;;;;;16.53;58.96;95580.53;5022197;28;20209;-75
2023/10/06 03:53:13;;;;;;;11.18;7.60;;;;;;;16.68;58.92;95590.41;5024092;28;20225;-74
2023/10/06 03:55:42;;;;;;;12.27;7.40;;;;;;;16.76;58.54;95587.72;5020556;28;20227;-74
2023/10/06 03:58:10;;;;;;;9.68;7.10;;;;;;;16.64;58.88;95584.63;5028464;28;20309;-74
2023/10/06 04:00:41;;;;;;;13.50;7.53;;;;;;;16.76;58.18;95588.53;5025606;28;20217;-74
2023/10/06 04:03:13;;;;;;;12.73;7.97;;;;;;;16.79;58.13;95582.09;5025876;28;20238;-72
2023/10/06 04:05:40;;;;;;;10.13;7.07;;;;;;;16.76;58.19;95572.59;5026335;28;20790;-74
2023/10/06 04:08:12;;;;;;;12.20;7.93;;;;;;;16.77;58.56;95578.78;5010624;28;20245;-72
2023/10/06 04:10:42;;;;;;;11.07;7.05;;;;;;;16.76;58.39;95577.09;5029284;28;20222;-73
2023/10/06 04:13:08;;;;;;;9.60;6.82;;;;;;;16.82;57.98;95573.75;5023994;28;21026;-72
2023/10/06 04:15:48;;;;;;;7.88;7.07;;;;;;;16.72;58.54;95571.28;5022030;28;20222;-73
2023/10/06 04:18:17;;;;;;;10.20;7.18;;;;;;;16.69;58.55;95581.44;5026863;28;20229;-72
2023/10/06 04:20:44;;;;;;;8.88;7.05;;;;;;;16.66;58.61;95587.94;5012598;28;20190;-73
2023/10/06 04:23:11;;;;;;;8.68;6.82;;;;;;;16.54;57.84;95584.88;5024072;28;20226;-72
2023/10/06 04:25:38;;;;;;;8.70;6.05;;;;;;;16.64;57.91;95587.28;5018948;28;20226;-74
2023/10/06 04:28:08;;;;;;;11.32;6.55;;;;;;;16.70;57.30;95589.22;5027314;28;20244;-74
2023/10/06 04:30:35;;;;;;;8.82;6.20;;;;;;;16.55;57.43;95596.31;5019037;28;20226;-78
2023/10/06 04:33:01;;;;;;;9.05;6.45;;;;;;;16.67;57.29;95604.69;5019941;28;20207;-71
2023/10/06 04:35:26;;;;;;;10.32;6.03;;;;;;;16.73;56.86;95594.22;5019661;28;20288;-75
2023/10/06 04:37:52;;;;;;;8.18;6.07;;;;;;;16.73;56.77;95604.81;5022220;28;20318;-71
2023/10/06 04:40:19;;;;;;;8.43;6.00;;;;;;;16.73;56.69;95602.16;5026804;28;20227;-78
2023/10/06 04:42:45;;;;;;;9.07;5.82;;;;;;;16.76;56.35;95604.47;5026144;28;20222;-74
2023/10/06 04:45:14;;;;;;;9.23;6.05;;;;;;;16.75;56.40;95610.75;5014020;28;20229;-73
2023/10/06 04:47:41;;;;;;;6.97;5.40;;;;;;;16.81;56.21;95605.78;5014497;28;20186;-78
2023/10/06 04:50:11;;;;;;;9.88;5.45;;;;;;;16.74;56.32;95617.09;5027454;28;20237;-78
2023/10/06 04:52:37;;;;;;;9.02;6.18;;;;;;;16.73;56.31;95611.94;5029940;28;20301;-79
2023/10/06 04:55:13;;;;;;;10.32;5.80;;;;;;;16.82;56.17;95620.75;5027685;28;20263;-79
2023/10/06 04:57:38;;;;;;;10.50;5.88;;;;;;;16.90;55.87;95618.84;5037249;28;20314;-80
2023/10/06 05:00:14;;;;;;;7.43;5.68;;;;;;;16.76;56.34;95624.91;5024810;28;20222;-78
2023/10/06 05:02:44;;;;;;;8.70;5.85;;;;;;;16.71;56.25;95622.75;5032488;28;20177;-78
2023/10/06 05:05:22;;;;;;;8.85;6.18;;;;;;;16.76;56.67;95636.34;5023858;28;20223;-79
2023/10/06 05:07:48;;;;;;;10.30;5.75;;;;;;;16.81;56.46;95629.69;5035214;28;20226;-80
2023/10/06 05:10:18;;;;;;;11.30;6.13;;;;;;;16.87;56.39;95640.47;5025496;28;20278;-79
2023/10/06 05:12:44;;;;;;;8.27;5.90;;;;;;;16.74;56.50;95634.84;5033398;28;20229;-79
2023/10/06 05:15:15;;;;;;;10.68;6.28;;;;;;;16.83;56.71;95635.66;5023517;28;20231;-81
2023/10/06 05:17:41;;;;;;;8.90;5.70;;;;;;;16.64;57.28;95635.06;5021296;28;20193;-80
2023/10/06 05:20:19;;;;;;;11.13;6.10;;;;;;;16.71;56.89;95643.19;5026391;28;20214;-78
2023/10/06 05:22:45;;;;;;;10.38;6.10;;;;;;;16.85;56.83;95644.28;5025858;28;20308;-78
2023/10/06 05:25:13;;;;;;;12.00;6.40;;;;;;;16.85;56.88;95649.59;5018783;28;20338;-77
2023/10/06 05:27:38;;;;;;;10.98;6.35;;;;;;;16.91;56.61;95649.72;5018236;28;20223;-78
2023/10/06 05:30:06;;;;;;;11.93;6.18;;;;;;;16.81;56.68;95648.28;5020114;28;20557;-78
2023/10/06 05:32:35;;;;;;;8.73;6.05;;;;;;;16.86;56.81;95649.41;5025345;28;20554;-80
2023/10/06 05:35:00;;;;;;;8.85;5.60;;;;;;;17.00;56.50;95653.16;5024649;28;20296;-77
2023/10/06 05:37:26;;;;;;;10.73;6.38;;;;;;;16.74;57.23;95654.28;5022673;28;21021;-77
2023/10/06 05:39:51;;;;;;;7.57;5.88;;;;;;;17.00;56.43;95658.47;5018652;28;20217;-73
2023/10/06 05:42:17;;;;;;;13.80;7.07;;;;;;;17.13;55.95;95648.09;5017241;28;20364;-73
2023/10/06 05:44:42;;;;;;;8.85;6.45;;;;;;;17.02;56.28;95656.44;5022209;28;20211;-75
2023/10/06 05:47:08;;;;;;;9.88;6.70;;;;;;;16.84;56.95;95664.72;5016791;28;20226;-75
2023/10/06 05:49:35;;;;;;;7.97;6.25;;;;;;;16.88;57.03;95665.19;5018479;28;20218;-74
2023/10/06 05:52:03;;;;;;;9.27;6.20;;;;;;;16.96;56.88;95658.00;5017263;28;20280;-75
2023/10/06 05:54:29;;;;;;;8.90;6.55;;;;;;;17.04;56.74;95665.09;5018110;28;20615;-75
2023/10/06 05:56:55;;;;;;;9.20;6.18;;;;;;;17.15;56.26;95674.47;5022651;28;20265;-75
2023/10/06 05:59:21;;;;;;;11.57;6.93;;;;;;;17.11;56.16;95682.00;5018152;28;20728;-74
2023/10/06 06:01:56;;;;;;;9.20;6.28;;;;;;;17.01;56.78;95676.06;5009061;28;20230;-75
2023/10/06 06:04:27;;;;;;;8.00;6.07;;;;;;;17.05;56.92;95677.34;5018306;28;20709;-74
2023/10/06 06:06:56;;;;;;;10.38;6.32;;;;;;;17.09;56.39;95670.69;5014080;28;20218;-77
2023/10/06 06:09:22;;;;;;;13.85;6.60;;;;;;;17.20;56.31;95685.41;5019638;28;20624;-75
2023/10/06 06:11:48;;;;;;;10.25;6.85;;;;;;;17.36;55.76;95679.97;5017745;28;20214;-74
2023/10/06 06:14:13;;;;;;;9.30;6.53;;;;;;;17.57;55.29;95676.66;5021278;28;20269;-71
2023/10/06 06:16:44;;;;;;;13.98;7.35;;;;;;;17.67;54.50;95681.75;5020813;28;20222;-73
2023/10/06 06:19:11;;;;;;;10.05;7.22;;;;;;;17.57;54.75;95679.31;5015301;28;21234;-71
2023/10/06 06:21:38;;;;;;;8.82;6.30;;;;;;;17.42;55.25;95686.41;5019871;28;20225;-71
2023/10/06 06:24:06;;;;;;;9.48;6.60;;;;;;;17.51;55.22;95681.84;5017563;28;20203;-74
2023/10/06 06:26:36;;;;;;;14.95;8.40;;;;;;;17.72;54.78;95683.84;5006902;28;20186;-74
2023/10/06 06:29:03;;;;;;;10.40;6.65;;;;;;;17.71;54.65;95688.34;5017026;28;20364;-75
2023/10/06 06:31:34;;;;;;;13.57;6.45;;;;;;;17.67;54.51;95691.53;5013387;28;20214;-74
2023/10/06 06:34:06;;;;;;;11.95;6.60;;;;;;;17.69;54.80;95684.19;5017297;28;20606;-76
2023/10/06 06:36:32;;;;;;;8.25;6.32;;;;;;;17.84;54.38;95690.44;5020465;28;20225;-76
2023/10/06 06:39:03;;;;;;;12.05;6.95;;;;;;;18.01;54.20;95699.91;5021059;28;20186;-72
2023/10/06 06:41:28;;;;;;;10.40;7.13;;;;;;;18.15;53.52;95695.63;5018073;28;20190;-73
2023/10/06 06:44:01;;;;;;;9.00;6.82;;;;;;;18.15;53.89;95708.09;5021448;28;21194;-73
2023/10/06 06:46:29;;;;;;;10.57;6.47;;;;;;;18.26;53.64;95712.97;5016732;28;20225;-73
2023/10/06 06:48:59;;;;;;;10.90;6.80;;;;;;;18.10;53.99;95700.66;5020632;28;20218;-72
2023/10/06 06:51:30;;;;;;;13.48;7.18;;;;;;;18.25;53.67;95722.78;5021534;28;20317;-74
2023/10/06 06:53:56;;;;;;;14.85;6.65;;;;;;;18.21;53.73;95713.53;5021674;28;20190;-75
2023/10/06 06:56:24;;;;;;;10.35;6.30;;;;;;;17.96;54.02;95712.94;5022012;28;20187;-78
2023/10/06 06:58:51;;;;;;;8.68;6.00;;;;;;;18.02;54.33;95716.72;5009079;28;20314;-78
2023/10/06 07:01:18;;;;;;;6.93;5.93;;;;;;;18.17;53.80;95714.06;5015139;28;20238;-77
2023/10/06 07:03:43;;;;;;;16.10;6.80;;;;;;;18.30;53.64;95719.56;5027353;28;20230;-80
2023/10/06 07:06:16;;;;;;;11.35;6.20;;;;;;;18.19;53.72;95717.38;5021081;28;20313;-79
2023/10/06 07:08:43;;;;;;;13.30;5.85;;;;;;;18.28;53.79;95722.44;5025652;28;20179;-76
2023/10/06 07:11:12;;;;;;;10.38;6.88;;;;;;;18.26;53.62;95719.13;5024965;28;20218;-75
2023/10/06 07:13:39;;;;;;;14.18;6.22;;;;;;;18.45;53.14;95719.59;5020362;28;20222;-81
2023/10/06 07:16:05;;;;;;;10.68;6.20;;;;;;;18.57;52.78;95726.09;5025402;28;20221;-79
2023/10/06 07:18:34;;;;;;;11.15;6.80;;;;;;;18.60;52.60;95716.91;5022863;28;20322;-79
2023/10/06 07:20:59;;;;;;;10.30;6.97;;;;;;;18.64;52.59;95719.03;5025312;28;20248;-78
2023/10/06 07:23:25;;;;;;;9.30;6.60;;;;;;;18.75;52.27;95716.97;5028099;28;20179;-79
2023/10/06 07:25:51;;;;;;;10.15;6.88;;;;;;;18.62;52.29;95715.72;5027036;28;20227;-80
2023/10/06 07:28:17;;;;;;;10.65;6.60;;;;;;;18.34;53.22;95715.56;5030749;28;20241;-80
2023/10/06 07:30:43;;;;;;;10.55;6.30;;;;;;;18.69;52.56;95715.84;5026590;28;20225;-79
2023/10/06 07:33:09;;;;;;;10.38;6.80;;;;;;;18.87;51.89;95713.63;5018905;28;20214;-82
2023/10/06 07:35:40;;;;;;;8.15;6.25;;;;;;;19.13;51.27;95713.09;5025645;28;20236;-77
2023/10/06 07:38:06;;;;;;;10.32;7.05;;;;;;;19.34;50.63;95712.31;5027270;28;20246;-78
2023/10/06 07:40:32;;;;;;;11.00;6.53;;;;;;;19.21;50.62;95698.84;5032689;28;20305;-78
2023/10/06 07:42:58;;;;;;;9.85;7.05;;;;;;;19.33;50.23;95716.00;5024127;28;20217;-80
2023/10/06 07:45:26;;;;;;;8.80;6.82;;;;;;;19.33;50.40;95709.84;5020236;28;20289;-76
2023/10/06 07:47:53;;;;;;;9.43;6.85;;;;;;;19.52;49.80;95708.41;5018742;28;20591;-76
2023/10/06 07:50:18;;;;;;;11.32;6.93;;;;;;;19.49;49.60;95704.28;5030560;28;20187;-81
2023/10/06 07:52:48;;;;;;;9.40;7.35;;;;;;;19.63;49.34;95697.22;5021057;28;20890;-74
2023/10/06 07:55:15;;;;;;;11.23;7.97;;;;;;;19.59;49.54;95699.44;5025869;28;20324;-81
2023/10/06 07:57:45;;;;;;;10.45;7.43;;;;;;;19.70;49.26;95697.28;5028135;28;20222;-81
2023/10/06 08:00:17;;;;;;;8.88;7.28;;;;;;;19.64;49.46;95700.69;5025733;28;20229;-80
2023/10/06 08:02:43;;;;;;;11.32;7.07;;;;;;;19.86;48.97;95690.84;5030613;28;20273;-81
2023/10/06 08:05:12;;;;;;;10.07;7.40;;;;;;;19.80;49.23;95695.13;5029387;28;20280;-78
2023/10/06 08:07:39;;;;;;;9.73;7.35;;;;;;;19.77;49.18;95701.66;5030906;28;20301;-77
2023/10/06 08:10:05;;;;;;;15.27;7.60;;;;;;;19.94;48.99;95698.72;5030393;28;20573;-79
2023/10/06 08:12:33;;;;;;;11.25;6.80;;;;;;;19.98;48.60;95700.00;5029211;28;20218;-77
2023/10/06 08:15:06;;;;;;;11.63;7.28;;;;;;;20.04;48.23;95701.88;5027421;28;20202;-77
2023/10/06 08:17:31;;;;;;;11.68;7.03;;;;;;;20.13;48.04;95708.75;5031598;28;20625;-74
2023/10/06 08:19:57;;;;;;;13.13;8.00;;;;;;;20.04;48.27;95696.53;5026972;28;20252;-80
2023/10/06 08:22:25;;;;;;;11.32;8.38;;;;;;;20.04;48.27;95704.56;5020941;28;20268;-76
2023/10/06 08:24:51;;;;;;;10.35;7.30;;;;;;;20.11;48.02;95701.94;5017455;28;20218;-76
2023/10/06 08:27:21;;;;;;;12.23;8.38;;;;;;;20.11;47.76;95699.28;5020176;28;20218;-76
2023/10/06 08:29:47;;;;;;;12.55;7.28;;;;;;;20.09;47.50;95707.47;5019182;28;20213;-77
2023/10/06 08:32:12;;;;;;;10.00;7.45;;;;;;;20.03;47.84;95701.06;5006184;28;20269;-77
2023/10/06 08:34:39;;;;;;;12.10;7.57;;;;;;;20.11;47.86;95708.13;5022302;28;20226;-79
2023/10/06 08:37:11;;;;;;;11.70;7.47;;;;;;;20.24;47.39;95700.19;5018541;28;20273;-75
2023/10/06 08:39:39;;;;;;;10.90;7.50;;;;;;;20.23;47.62;95706.56;5020319;28;20218;-76
2023/10/06 08:42:09;;;;;;;9.45;7.32;;;;;;;20.34;47.19;95704.34;5008213;28;20213;-76
2023/10/06 08:44:37;;;;;;;10.57;7.50;;;;;;;20.54;47.33;95708.00;5020059;28;20289;-76
2023/10/06 08:47:06;;;;;;;8.20;7.00;;;;;;;20.40;46.76;95706.25;5021435;28;20286;-75
2023/10/06 08:49:32;;;;;;;12.30;7.72;;;;;;;20.06;47.58;95705.19;5029284;28;20272;-76
2023/10/06 08:51:59;;;;;;;12.05;7.72;;;;;;;20.24;46.91;95704.72;5023103;28;20737;-76
2023/10/06 08:54:26;;;;;;;15.20;10.27;;;;;;;20.38;46.49;95708.28;5020171;28;20223;-75
2023/10/06 08:56:52;;;;;;;14.38;7.72;;;;;;;20.56;46.15;95702.47;5024416;28;20181;-74
2023/10/06 08:59:20;;;;;;;9.77;7.10;;;;;;;20.67;45.75;95702.75;5026643;28;20174;-76
2023/10/06 09:01:45;;;;;;;11.50;7.50;;;;;;;20.59;45.81;95705.56;5026960;28;20723;-78
2023/10/06 09:04:11;;;;;;;11.50;7.70;;;;;;;20.39;46.12;95704.59;5025626;28;20218;-78
2023/10/06 09:07:06;;;;;;;8.48;7.30;;;;;;;20.12;46.89;95714.28;5022057;28;20222;-77
2023/10/06 09:09:32;;;;;;;13.25;7.78;;;;;;;20.15;46.94;95692.53;5020366;28;20225;-78
2023/10/06 09:11:58;;;;;;;10.38;7.38;;;;;;;20.25;46.58;95709.03;5017412;28;20183;-78
2023/10/06 09:14:25;;;;;;;13.30;7.75;;;;;;;20.30;46.47;95700.44;5021207;28;21124;-77
2023/10/06 09:16:51;;;;;;;9.52;7.53;;;;;;;20.22;46.89;95696.06;5024323;28;20323;-78
2023/10/06 09:19:17;;;;;;;12.70;7.80;;;;;;;20.32;46.66;95699.22;5025719;28;20254;-76
2023/10/06 09:22:04;;;;;;;9.88;7.47;;;;;;;20.46;46.01;95684.91;5021793;28;20237;-74
2023/10/06 09:24:30;;;;;;;10.35;7.75;;;;;;;20.41;45.63;95691.88;5022518;28;20723;-75
2023/10/06 09:26:56;;;;;;;9.82;7.30;;;;;;;20.56;45.35;95684.59;5026494;28;20190;-72
2023/10/06 09:29:38;;;;;;;10.13;7.55;;;;;;;20.75;45.17;95699.09;5033539;28;20296;-83
2023/10/06 09:32:22;;;;;;;12.82;7.90;;;;;;;20.68;45.14;95692.88;5026145;28;20219;-80
2023/10/06 09:34:53;;;;;;;8.77;6.90;;;;;;;20.88;44.57;95690.31;5024177;28;20210;-79
2023/10/06 09:37:19;;;;;;;10.75;7.05;;;;;;;21.00;43.94;95690.53;5033839;28;20222;-78
2023/10/06 09:39:56;;;;;;;9.93;7.40;;;;;;;21.11;43.75;95696.13;5033759;28;20257;-77
2023/10/06 09:42:30;;;;;;;10.98;8.13;;;;;;;21.06;43.87;95690.59;5041062;28;20233;-80
2023/10/06 09:45:06;;;;;;;12.50;7.63;;;;;;;20.99;44.34;95694.25;5031761;28;20237;-79
2023/10/06 09:47:38;;;;;;;13.38;7.43;;;;;;;21.02;44.12;95697.34;5025595;28;20210;-76
2023/10/06 09:50:06;;;;;;;9.45;6.53;;;;;;;20.92;44.61;95687.00;5020196;28;20500;-76
2023/10/06 09:52:34;;;;;;;9.73;7.47;;;;;;;21.00;43.77;95680.66;5020907;28;20734;-73
2023/10/06 09:55:04;;;;;;;9.30;7.05;;;;;;;21.06;43.63;95685.22;5028307;28;20222;-73
2023/10/06 09:57:32;;;;;;;8.88;7.97;;;;;;;21.20;43.37;95675.41;5021245;28;20677;-74
2023/10/06 10:00:00;;;;;;;15.90;8.05;;;;;;;21.12;43.37;95680.94;5021708;28;20210;-74
2023/10/06 10:02:29;;;;;;;13.80;8.77;;;;;;;21.17;43.81;95683.81;5026248;28;20206;-77
2023/10/06 10:04:59;;;;;;;8.73;7.82;;;;;;;21.10;43.89;95681.13;5027480;28;20218;-79
2023/10/06 10:07:29;;;;;;;12.57;8.10;;;;;;;21.18;43.45;95676.63;5024296;28;20233;-74
2023/10/06 10:09:57;;;;;;;9.63;7.63;;;;;;;21.17;43.45;95680.31;5019634;28;20230;-77
2023/10/06 10:13:07;;;;;;;12.25;7.45;;;;;;;21.02;43.17;95678.63;5024965;28;20222;-76
2023/10/06 10:15:57;;;;;;;11.43;6.45;;;;;;;21.17;42.72;95688.31;5023280;28;20218;-72
2023/10/06 10:18:47;;;;;;;13.88;7.22;;;;;;;21.24;42.31;95670.47;4988202;28;20219;-74
2023/10/06 10:21:14;;;;;;;12.35;7.55;;;;;;;21.34;42.06;95673.56;4991760;28;20241;-74
2023/10/06 10:23:40;;;;;;;9.45;7.32;;;;;;;21.31;41.15;95673.97;4990746;28;20195;-75
2023/10/06 10:26:27;;;;;;;8.32;7.00;;;;;;;21.29;41.87;95662.66;4991877;28;20234;-82
2023/10/06 10:29:17;;;;;;;8.10;6.93;;;;;;;21.21;41.49;95663.66;4995301;28;20237;-74
2023/10/06 10:31:47;;;;;;;9.30;6.97;;;;;;;21.17;41.51;95654.41;4993115;28;20218;-73
2023/10/06 10:34:20;;;;;;;11.55;7.55;;;;;;;21.13;41.51;95645.94;4992371;28;20227;-75
2023/10/06 10:36:48;;;;;;;9.82;7.20;;;;;;;21.20;41.41;95659.34;4994539;28;20233;-74
2023/10/06 10:39:17;;;;;;;9.13;7.10;;;;;;;21.23;41.26;95647.41;4979913;28;20231;-77
2023/10/06 10:41:45;;;;;;;8.82;6.60;;;;;;;21.00;41.65;95651.25;4994941;28;20260;-77
2023/10/06 10:44:11;;;;;;;10.65;7.30;;;;;;;20.94;41.76;95638.69;5010073;28;20219;-78
2023/10/06 10:46:47;;;;;;;8.75;6.47;;;;;;;21.06;41.39;95645.13;4990278;28;20245;-77
2023/10/06 10:49:15;;;;;;;11.35;7.43;;;;;;;20.98;40.77;95639.94;4988550;28;20309;-77
2023/10/06 10:51:55;;;;;;;10.23;7.20;;;;;;;21.15;40.36;95632.38;4996090;28;20214;-79
2023/10/06 10:54:22;;;;;;;10.00;5.90;;;;;;;20.99;40.05;95635.44;4997298;28;20282;-74
2023/10/06 10:56:51;;;;;;;9.90;6.32;;;;;;;20.91;40.21;95633.75;5023849;28;20298;-74
2023/10/06 10:59:20;;;;;;;10.15;6.97;;;;;;;20.86;40.29;95622.84;5023456;28;20193;-76
2023/10/06 11:01:51;;;;;;;10.88;7.00;;;;;;;20.84;40.53;95623.03;5027396;28;20224;-75
2023/10/06 11:04:29;;;;;;;8.90;6.32;;;;;;;20.93;39.83;95621.03;5028181;28;20254;-78
2023/10/06 11:06:56;;;;;;;8.50;6.93;;;;;;;21.01;39.73;95622.66;5026214;28;20222;-77
2023/10/06 11:09:29;;;;;;;8.52;6.18;;;;;;;21.05;39.20;95621.25;5032710;28;20213;-75
2023/10/06 11:11:59;;;;;;;6.78;6.07;;;;;;;20.95;39.06;95613.59;5031515;28;20178;-81
2023/10/06 11:14:27;;;;;;;7.70;6.28;;;;;;;20.91;38.99;95607.03;5027969;28;20187;-77
2023/10/06 11:17:02;;;;;;;8.48;6.45;;;;;;;21.07;39.12;95612.00;5026403;28;20206;-78
2023/10/06 11:19:30;;;;;;;8.90;6.18;;;;;;;21.20;38.46;95600.50;5039775;28;20222;-77
2023/10/06 11:22:07;;;;;;;8.88;6.07;;;;;;;21.11;38.40;95607.06;5026306;28;20214;-78
2023/10/06 11:24:33;;;;;;;6.45;5.80;;;;;;;21.31;37.90;95601.75;5026541;28;20223;-72
2023/10/06 11:27:16;;;;;;;10.07;5.78;;;;;;;21.33;37.68;95594.34;5028327;28;20266;-73
2023/10/06 11:29:44;;;;;;;8.63;5.68;;;;;;;21.50;37.10;95590.28;5025975;28;20185;-78
2023/10/06 11:32:11;;;;;;;7.38;6.00;;;;;;;21.57;36.89;95601.81;5027237;28;20218;-74
2023/10/06 11:34:37;;;;;;;9.55;5.75;;;;;;;21.62;36.35;95598.50;5029896;28;20214;-79
2023/10/06 11:37:02;;;;;;;6.18;5.53;;;;;;;21.61;36.58;95596.03;5023796;28;20272;-82
2023/10/06 11:39:31;;;;;;;8.57;5.90;;;;;;;21.81;36.32;95586.13;5028553;28;20223;-70
2023/10/06 11:42:22;;;;;;;8.10;5.32;;;;;;;21.77;36.30;95595.63;5022885;28;20193;-66
2023/10/06 11:44:47;;;;;;;7.60;5.63;;;;;;;21.65;36.79;95594.59;5021728;28;20244;-69
2023/10/06 11:47:13;;;;;;;6.03;5.22;;;;;;;21.65;36.22;95597.25;5017654;28;20672;-75